createdAt,value
2018-03-19T00:00:09.745Z,23.60
2018-03-19T00:01:09.755Z,25.30
2018-03-19T00:02:09.754Z,24.10
2018-03-19T00:03:09.793Z,24.70
2018-03-19T00:04:09.778Z,24.10
2018-03-19T00:05:09.799Z,24.30
2018-03-19T00:06:09.819Z,24.30
2018-03-19T00:07:09.831Z,24.50
2018-03-19T00:08:09.841Z,25.00
2018-03-19T00:09:09.855Z,24.30
2018-03-19T00:10:09.851Z,23.30
2018-03-19T00:11:09.860Z,23.80
2018-03-19T00:12:09.867Z,23.60
2018-03-19T00:13:09.871Z,23.50
2018-03-19T00:14:09.905Z,23.90
2018-03-19T00:15:09.900Z,24.60
2018-03-19T00:16:09.899Z,25.00
2018-03-19T00:17:09.913Z,26.00
2018-03-19T00:18:09.927Z,24.40
2018-03-19T00:19:09.948Z,23.80
2018-03-19T00:20:09.958Z,23.90
2018-03-19T00:21:09.972Z,24.40
2018-03-19T00:22:09.974Z,25.20
2018-03-19T00:23:09.972Z,24.80
2018-03-19T00:24:09.978Z,24.60
2018-03-19T00:25:09.989Z,23.80
2018-03-19T00:26:10.057Z,24.10
2018-03-19T00:27:10.020Z,24.10
2018-03-19T00:28:10.028Z,24.30
2018-03-19T00:29:10.034Z,23.30
2018-03-19T00:30:10.052Z,23.70
2018-03-19T00:31:10.062Z,23.40
2018-03-19T00:32:10.098Z,24.00
2018-03-19T00:33:10.114Z,23.80
2018-03-19T00:34:10.093Z,22.90
2018-03-19T00:35:10.109Z,23.20
2018-03-19T00:36:10.126Z,22.90
2018-03-19T00:37:10.107Z,23.90
2018-03-19T00:38:10.145Z,23.20
2018-03-19T00:39:10.180Z,23.70
2018-03-19T00:40:10.145Z,23.20
2018-03-19T00:41:10.165Z,22.90
2018-03-19T00:42:10.178Z,23.20
2018-03-19T00:43:10.196Z,23.30
2018-03-19T00:44:10.191Z,23.60
2018-03-19T00:45:10.232Z,22.90
2018-03-19T00:46:10.217Z,23.20
2018-03-19T00:47:10.214Z,23.60
2018-03-19T00:48:10.249Z,23.50
2018-03-19T00:49:10.234Z,22.10
2018-03-19T00:50:10.256Z,22.20
2018-03-19T00:51:10.278Z,23.20
2018-03-19T00:52:10.264Z,23.30
2018-03-19T00:53:10.312Z,22.90
2018-03-19T00:54:10.334Z,22.50
2018-03-19T00:55:10.379Z,21.80
2018-03-19T00:56:10.420Z,22.40
2018-03-19T00:57:10.410Z,21.70
2018-03-19T00:58:10.405Z,22.30
2018-03-19T00:59:10.426Z,22.30
2018-03-19T01:00:10.371Z,22.00
2018-03-19T01:01:10.440Z,21.40
2018-03-19T01:02:10.389Z,22.80
2018-03-19T01:03:10.443Z,22.70
2018-03-19T01:04:10.418Z,22.00
2018-03-19T01:05:10.442Z,21.90
2018-03-19T01:06:10.507Z,21.80
2018-03-19T01:07:10.516Z,21.30
2018-03-19T01:08:10.532Z,22.00
2018-03-19T01:09:10.979Z,22.70
2018-03-19T01:10:10.475Z,23.10
2018-03-19T01:11:10.638Z,22.70
2018-03-19T01:12:10.584Z,22.60
2018-03-19T01:13:10.540Z,22.00
2018-03-19T01:14:10.978Z,21.90
2018-03-19T01:15:10.563Z,22.40
2018-03-19T01:16:10.619Z,22.30
2018-03-19T01:17:10.532Z,21.90
2018-03-19T01:18:10.531Z,22.10
2018-03-19T01:19:10.557Z,21.70
2018-03-19T01:20:10.591Z,21.60
2018-03-19T01:21:10.571Z,21.90
2018-03-19T01:22:10.581Z,22.00
2018-03-19T01:23:10.584Z,22.40
2018-03-19T01:24:10.606Z,21.50
2018-03-19T01:25:10.609Z,21.60
2018-03-19T01:26:10.653Z,23.30
2018-03-19T01:27:10.620Z,22.50
2018-03-19T01:28:10.633Z,22.10
2018-03-19T01:29:10.640Z,22.10
2018-03-19T01:30:10.672Z,21.80
2018-03-19T01:31:10.688Z,21.80
2018-03-19T01:32:10.678Z,21.90
2018-03-19T01:33:10.674Z,22.00
2018-03-19T01:34:10.697Z,22.30
2018-03-19T01:35:10.730Z,21.40
2018-03-19T01:36:10.744Z,21.20
2018-03-19T01:37:10.759Z,22.00
2018-03-19T01:38:10.727Z,22.10
2018-03-19T01:39:10.766Z,21.50
2018-03-19T01:40:10.747Z,21.60
2018-03-19T01:41:10.784Z,22.40
2018-03-19T01:42:10.798Z,22.20
2018-03-19T01:43:10.794Z,22.00
2018-03-19T01:44:10.808Z,21.60
2018-03-19T01:45:10.809Z,21.20
2018-03-19T01:46:10.819Z,22.10
2018-03-19T01:47:10.851Z,22.20
2018-03-19T01:48:10.854Z,21.50
2018-03-19T01:49:10.846Z,21.50
2018-03-19T01:50:10.857Z,21.60
2018-03-19T01:51:10.872Z,21.90
2018-03-19T01:52:10.876Z,22.30
2018-03-19T01:53:10.914Z,21.90
2018-03-19T01:54:10.911Z,22.90
2018-03-19T01:55:10.905Z,22.50
2018-03-19T01:56:10.907Z,22.30
2018-03-19T01:57:10.957Z,21.90
2018-03-19T01:58:10.933Z,22.00
2018-03-19T01:59:10.942Z,22.50
2018-03-19T02:00:10.952Z,22.30
2018-03-19T02:01:10.965Z,23.00
2018-03-19T02:02:11.016Z,22.70
2018-03-19T02:03:10.985Z,22.80
2018-03-19T02:04:11.012Z,22.60
2018-03-19T02:05:10.997Z,21.80
2018-03-19T02:06:11.018Z,22.70
2018-03-19T02:07:11.026Z,22.40
2018-03-19T02:08:11.087Z,21.90
2018-03-19T02:09:11.045Z,22.90
2018-03-19T02:10:11.050Z,22.50
2018-03-19T02:11:11.068Z,22.80
2018-03-19T02:12:11.096Z,22.10
2018-03-19T02:13:11.076Z,22.60
2018-03-19T02:14:11.143Z,22.60
2018-03-19T02:15:11.103Z,22.80
2018-03-19T02:16:11.123Z,22.00
2018-03-19T02:17:11.124Z,21.70
2018-03-19T02:18:11.139Z,22.50
2018-03-19T02:19:11.176Z,22.60
2018-03-19T02:20:11.150Z,21.80
2018-03-19T02:21:11.155Z,22.10
2018-03-19T02:22:11.186Z,22.50
2018-03-19T02:23:11.189Z,22.20
2018-03-19T02:24:11.209Z,22.50
2018-03-19T02:25:11.197Z,22.70
2018-03-19T02:26:11.207Z,22.90
2018-03-19T02:27:11.214Z,22.30
2018-03-19T02:28:11.256Z,22.40
2018-03-19T02:29:11.234Z,23.40
2018-03-19T02:30:11.288Z,21.80
2018-03-19T02:31:11.276Z,22.40
2018-03-19T02:32:11.277Z,23.00
2018-03-19T02:33:11.288Z,22.60
2018-03-19T02:34:11.326Z,22.10
2018-03-19T02:35:11.306Z,23.10
2018-03-19T02:36:11.309Z,22.60
2018-03-19T02:37:11.331Z,23.00
2018-03-19T02:38:11.329Z,23.80
2018-03-19T02:39:11.371Z,22.80
2018-03-19T02:40:11.354Z,22.70
2018-03-19T02:41:11.353Z,22.00
2018-03-19T02:42:11.375Z,22.80
2018-03-19T02:43:11.406Z,22.00
2018-03-19T02:44:11.389Z,23.10
2018-03-19T02:45:11.443Z,23.00
2018-03-19T02:46:11.412Z,22.80
2018-03-19T02:47:11.436Z,23.10
2018-03-19T02:48:11.424Z,23.00
2018-03-19T02:49:11.500Z,23.40
2018-03-19T02:50:11.443Z,23.50
2018-03-19T02:51:11.469Z,24.40
2018-03-19T02:52:11.477Z,24.00
2018-03-19T02:53:11.485Z,23.60
2018-03-19T02:54:11.517Z,24.50
2018-03-19T02:55:11.509Z,23.30
2018-03-19T02:56:11.528Z,23.70
2018-03-19T02:57:11.519Z,22.80
2018-03-19T02:58:11.535Z,22.90
2018-03-19T02:59:11.546Z,22.40
2018-03-19T03:00:11.603Z,22.60
2018-03-19T03:01:11.571Z,22.90
2018-03-19T03:02:11.565Z,23.30
2018-03-19T03:03:11.580Z,22.40
2018-03-19T03:04:11.590Z,22.60
2018-03-19T03:05:11.623Z,23.30
2018-03-19T03:06:11.639Z,23.00
2018-03-19T03:07:11.612Z,23.70
2018-03-19T03:08:11.632Z,23.60
2018-03-19T03:09:11.638Z,22.80
2018-03-19T03:10:11.691Z,22.30
2018-03-19T03:11:11.675Z,23.10
2018-03-19T03:12:11.665Z,22.80
2018-03-19T03:13:11.669Z,24.00
2018-03-19T03:14:11.698Z,25.20
2018-03-19T03:15:11.730Z,23.80
2018-03-19T03:16:11.700Z,23.00
2018-03-19T03:17:11.726Z,22.80
2018-03-19T03:18:11.727Z,23.00
2018-03-19T03:19:11.757Z,23.80
2018-03-19T03:20:11.791Z,23.10
2018-03-19T03:21:14.000Z,22.70
2018-03-19T03:22:15.488Z,23.30
2018-03-19T03:23:13.994Z,23.80
2018-03-19T03:24:16.482Z,23.10
2018-03-19T03:25:17.503Z,23.60
2018-03-19T03:26:18.006Z,23.20
2018-03-19T03:27:14.985Z,23.40
2018-03-19T03:28:14.486Z,23.10
2018-03-19T03:29:16.029Z,23.50
2018-03-19T03:30:17.038Z,22.90
2018-03-19T03:59:34.465Z,23.80
2018-03-19T04:00:02.608Z,23.90
2018-03-19T04:01:02.564Z,24.50
2018-03-19T04:02:02.558Z,25.50
2018-03-19T04:03:02.562Z,24.60
2018-03-19T04:04:02.579Z,24.30
2018-03-19T04:05:02.628Z,24.60
2018-03-19T04:06:02.595Z,25.00
2018-03-19T04:07:02.609Z,24.20
2018-03-19T04:08:02.633Z,24.10
2018-03-19T04:09:02.630Z,24.80
2018-03-19T04:10:02.682Z,25.60
2018-03-19T04:11:02.653Z,24.80
2018-03-19T04:12:02.657Z,25.30
2018-03-19T04:13:02.661Z,24.70
2018-03-19T04:14:02.671Z,24.40
2018-03-19T04:15:02.697Z,25.10
2018-03-19T04:16:02.711Z,25.30
2018-03-19T04:17:02.747Z,25.60
2018-03-19T04:18:02.740Z,25.50
2018-03-19T04:19:02.724Z,25.60
2018-03-19T04:20:02.746Z,25.10
2018-03-19T04:21:02.741Z,24.60
2018-03-19T04:22:02.778Z,25.20
2018-03-19T04:23:02.792Z,25.20
2018-03-19T04:24:02.774Z,25.60
2018-03-19T04:25:02.813Z,24.90
2018-03-19T04:26:02.800Z,25.30
2018-03-19T04:27:02.802Z,24.80
2018-03-19T04:28:02.829Z,25.40
2018-03-19T04:29:02.839Z,25.90
2018-03-19T04:30:02.867Z,25.90
2018-03-19T04:31:03.963Z,26.50
2018-03-19T04:32:02.961Z,25.50
2018-03-19T04:33:02.979Z,25.50
2018-03-19T04:34:10.470Z,25.50
2018-03-19T04:35:03.085Z,24.80
2018-03-19T04:36:02.973Z,26.30
2018-03-19T04:37:03.565Z,26.70
2018-03-19T04:38:03.668Z,25.50
2018-03-19T04:39:03.464Z,25.90
2018-03-19T04:40:03.694Z,25.90
2018-03-19T04:41:03.593Z,26.50
2018-03-19T04:42:04.468Z,26.40
2018-03-19T04:43:03.231Z,25.80
2018-03-19T04:44:05.466Z,26.40
2018-03-19T04:45:03.201Z,26.40
2018-03-19T04:46:03.072Z,26.90
2018-03-19T04:47:03.072Z,26.50
2018-03-19T04:48:03.270Z,27.10
2018-03-19T04:49:03.143Z,26.40
2018-03-19T04:50:03.253Z,26.30
2018-03-19T04:51:03.144Z,26.30
2018-03-19T04:52:03.967Z,27.90
2018-03-19T04:53:03.263Z,26.80
2018-03-19T04:54:03.964Z,27.30
2018-03-19T04:55:03.229Z,28.10
2018-03-19T04:56:03.214Z,28.10
2018-03-19T04:57:08.198Z,26.60
2018-03-19T04:58:03.222Z,26.80
2018-03-19T04:59:03.194Z,26.80
2018-03-19T05:00:03.146Z,27.30
2018-03-19T05:01:03.217Z,27.40
2018-03-19T05:02:03.228Z,28.30
2018-03-19T05:03:03.188Z,28.10
2018-03-19T05:04:03.343Z,28.40
2018-03-19T05:05:03.967Z,28.00
2018-03-19T05:06:03.966Z,28.30
2018-03-19T05:07:03.305Z,28.10
2018-03-19T05:08:03.350Z,27.70
2018-03-19T05:09:03.309Z,28.10
2018-03-19T05:10:03.362Z,27.20
2018-03-19T05:11:03.312Z,27.40
2018-03-19T05:12:03.358Z,28.30
2018-03-19T05:13:03.302Z,27.80
2018-03-19T05:14:03.393Z,28.40
2018-03-19T05:15:03.341Z,28.40
2018-03-19T05:16:03.418Z,29.00
2018-03-19T05:17:03.377Z,29.70
2018-03-19T05:18:03.332Z,28.90
2018-03-19T05:19:03.446Z,29.70
2018-03-19T05:20:03.394Z,29.60
2018-03-19T05:21:03.383Z,29.60
2018-03-19T05:22:03.453Z,29.30
2018-03-19T05:23:03.428Z,28.70
2018-03-19T05:24:03.418Z,29.50
2018-03-19T05:25:03.477Z,29.40
2018-03-19T05:26:03.418Z,28.90
2018-03-19T05:27:03.445Z,32.00
2018-03-19T05:28:03.445Z,41.80
2018-03-19T05:29:03.469Z,32.80
2018-03-19T05:30:03.416Z,32.70
2018-03-19T05:31:03.464Z,31.00
2018-03-19T05:32:04.170Z,29.70
2018-03-19T05:33:03.792Z,29.70
2018-03-19T05:34:03.689Z,31.10
2018-03-19T05:35:05.298Z,30.30
2018-03-19T05:36:04.005Z,32.60
2018-03-19T05:37:04.132Z,30.50
2018-03-19T05:38:04.426Z,30.60
2018-03-19T05:39:04.441Z,31.10
2018-03-19T05:40:04.852Z,29.80
2018-03-19T05:41:04.542Z,31.50
2018-03-19T05:42:04.471Z,33.50
2018-03-19T05:43:04.877Z,33.00
2018-03-19T05:44:03.891Z,51.10
2018-03-19T05:45:04.473Z,43.20
2018-03-19T05:46:06.467Z,31.20
2018-03-19T05:47:04.077Z,32.00
2018-03-19T05:48:03.728Z,30.90
2018-03-19T05:49:04.041Z,31.00
2018-03-19T05:50:05.234Z,30.00
2018-03-19T05:51:03.922Z,29.90
2018-03-19T05:52:05.812Z,30.00
2018-03-19T05:53:05.970Z,32.60
2018-03-19T05:54:06.556Z,34.90
2018-03-19T05:55:03.656Z,30.80
2018-03-19T05:56:03.667Z,36.60
2018-03-19T05:57:03.675Z,34.40
2018-03-19T05:58:03.711Z,40.10
2018-03-19T05:59:03.690Z,38.90
2018-03-19T06:00:03.699Z,36.70
2018-03-19T06:01:03.712Z,32.30
2018-03-19T06:02:03.721Z,31.50
2018-03-19T06:03:03.755Z,31.70
2018-03-19T06:04:03.738Z,31.40
2018-03-19T06:05:03.747Z,30.40
2018-03-19T06:06:03.759Z,29.90
2018-03-19T06:07:03.769Z,31.30
2018-03-19T06:08:03.802Z,31.30
2018-03-19T06:09:03.795Z,29.30
2018-03-19T06:10:03.797Z,31.10
2018-03-19T06:11:03.840Z,29.80
2018-03-19T06:12:03.818Z,29.80
2018-03-19T06:13:03.826Z,31.40
2018-03-19T06:14:03.838Z,29.90
2018-03-19T06:15:03.847Z,30.30
2018-03-19T06:16:03.874Z,28.70
2018-03-19T06:17:03.867Z,30.20
2018-03-19T06:18:03.875Z,31.00
2018-03-19T06:19:03.885Z,29.50
2018-03-19T06:20:03.914Z,30.10
2018-03-19T06:21:03.994Z,30.80
2018-03-19T06:22:03.912Z,29.70
2018-03-19T06:23:03.926Z,29.80
2018-03-19T06:24:03.930Z,28.90
2018-03-19T06:25:03.942Z,30.40
2018-03-19T06:26:03.965Z,29.50
2018-03-19T06:27:03.995Z,30.00
2018-03-19T06:28:04.060Z,31.60
2018-03-19T06:29:03.980Z,30.40
2018-03-19T06:30:04.036Z,30.20
2018-03-19T06:31:04.007Z,30.60
2018-03-19T06:32:04.044Z,31.20
2018-03-19T06:33:04.018Z,30.10
2018-03-19T06:34:04.029Z,32.00
2018-03-19T06:35:04.043Z,30.60
2018-03-19T06:36:04.047Z,30.40
2018-03-19T06:37:04.059Z,31.40
2018-03-19T06:38:04.108Z,30.30
2018-03-19T06:39:04.075Z,30.70
2018-03-19T06:40:04.084Z,30.90
2018-03-19T06:41:04.093Z,32.00
2018-03-19T06:42:04.104Z,30.80
2018-03-19T06:43:04.131Z,31.40
2018-03-19T06:44:04.132Z,30.00
2018-03-19T06:45:04.133Z,30.70
2018-03-19T06:46:04.153Z,30.50
2018-03-19T06:47:04.149Z,30.20
2018-03-19T06:48:04.191Z,30.30
2018-03-19T06:49:04.176Z,30.80
2018-03-19T06:50:04.176Z,30.80
2018-03-19T06:51:04.188Z,29.50
2018-03-19T06:52:04.200Z,28.90
2018-03-19T06:53:04.241Z,29.40
2018-03-19T06:54:04.226Z,29.50
2018-03-19T06:55:04.267Z,29.60
2018-03-19T06:56:04.240Z,29.00
2018-03-19T06:57:04.247Z,28.10
2018-03-19T06:58:04.260Z,29.50
2018-03-19T06:59:04.287Z,28.40
2018-03-19T07:00:04.278Z,28.30
2018-03-19T07:01:04.286Z,30.50
2018-03-19T07:02:04.324Z,31.50
2018-03-19T07:03:04.302Z,30.80
2018-03-19T07:04:04.317Z,28.80
2018-03-19T07:05:04.322Z,28.60
2018-03-19T07:06:04.329Z,28.00
2018-03-19T07:07:04.359Z,31.10
2018-03-19T07:08:04.356Z,30.50
2018-03-19T07:09:04.357Z,28.30
2018-03-19T07:10:04.389Z,27.40
2018-03-19T07:11:04.383Z,28.30
2018-03-19T07:12:04.395Z,28.50
2018-03-19T07:13:04.401Z,28.70
2018-03-19T07:14:04.514Z,28.80
2018-03-19T07:15:04.436Z,27.60
2018-03-19T07:16:04.430Z,29.50
2018-03-19T07:17:04.454Z,28.50
2018-03-19T07:18:04.448Z,28.60
2018-03-19T07:19:04.457Z,28.60
2018-03-19T07:20:04.465Z,28.00
2018-03-19T07:21:04.477Z,27.30
2018-03-19T07:22:04.519Z,27.60
2018-03-19T07:23:04.489Z,27.90
2018-03-19T07:24:04.507Z,28.50
2018-03-19T07:25:04.512Z,28.10
2018-03-19T07:26:04.521Z,30.50
2018-03-19T07:27:04.565Z,31.10
2018-03-19T07:28:04.732Z,29.90
2018-03-19T07:29:04.699Z,28.70
2018-03-19T07:30:04.766Z,27.80
2018-03-19T07:31:04.773Z,27.20
2018-03-19T07:32:04.912Z,28.00
2018-03-19T07:33:04.780Z,28.00
2018-03-19T07:34:04.615Z,27.30
2018-03-19T07:35:04.796Z,28.80
2018-03-19T07:36:04.760Z,30.00
2018-03-19T07:37:04.880Z,30.10
2018-03-19T07:38:04.932Z,29.10
2018-03-19T07:39:04.796Z,28.50
2018-03-19T07:40:04.852Z,27.70
2018-03-19T07:41:04.853Z,28.60
2018-03-19T07:42:04.994Z,27.90
2018-03-19T07:43:04.780Z,28.70
2018-03-19T07:44:04.857Z,27.20
2018-03-19T07:45:04.911Z,27.30
2018-03-19T07:46:04.863Z,27.30
2018-03-19T07:47:04.972Z,27.80
2018-03-19T07:48:05.182Z,29.10
2018-03-19T07:49:04.917Z,26.60
2018-03-19T07:50:04.801Z,27.00
2018-03-19T07:51:04.990Z,26.80
2018-03-19T07:52:04.971Z,27.30
2018-03-19T07:53:04.785Z,26.50
2018-03-19T07:54:04.845Z,26.40
2018-03-19T07:55:04.803Z,24.80
2018-03-19T07:56:04.810Z,26.90
2018-03-19T07:57:04.820Z,26.60
2018-03-19T07:58:04.829Z,27.00
2018-03-19T07:59:04.880Z,27.30
2018-03-19T08:00:04.847Z,27.10
2018-03-19T08:01:04.918Z,27.40
2018-03-19T08:02:04.866Z,26.30
2018-03-19T08:03:04.875Z,26.00
2018-03-19T08:04:04.919Z,28.20
2018-03-19T08:05:04.894Z,27.80
2018-03-19T08:06:04.994Z,26.70
2018-03-19T08:07:04.955Z,28.70
2018-03-19T08:08:04.917Z,27.60
2018-03-19T08:09:04.959Z,27.20
2018-03-19T08:10:04.939Z,27.20
2018-03-19T08:11:04.948Z,27.10
2018-03-19T08:12:04.986Z,27.90
2018-03-19T08:13:05.011Z,28.30
2018-03-19T08:14:04.994Z,26.50
2018-03-19T08:15:05.009Z,27.40
2018-03-19T08:16:04.995Z,27.50
2018-03-19T08:17:05.005Z,26.50
2018-03-19T08:18:05.017Z,27.10
2018-03-19T08:19:05.153Z,27.20
2018-03-19T08:20:05.038Z,27.20
2018-03-19T08:21:05.047Z,26.40
2018-03-19T08:22:05.056Z,26.20
2018-03-19T08:23:05.717Z,27.80
2018-03-19T08:24:05.106Z,27.60
2018-03-19T08:25:05.083Z,27.50
2018-03-19T08:26:05.093Z,28.10
2018-03-19T08:27:05.100Z,28.40
2018-03-19T08:28:05.169Z,28.50
2018-03-19T08:29:05.146Z,27.00
2018-03-19T08:30:05.133Z,27.40
2018-03-19T08:31:05.168Z,26.90
2018-03-19T08:32:05.302Z,27.00
2018-03-19T08:33:05.166Z,26.00
2018-03-19T08:34:05.187Z,26.10
2018-03-19T08:35:05.181Z,26.50
2018-03-19T08:36:05.234Z,26.10
2018-03-19T08:37:05.197Z,26.20
2018-03-19T08:38:05.207Z,26.50
2018-03-19T08:39:05.217Z,28.80
2018-03-19T08:40:05.227Z,28.10
2018-03-19T08:41:05.282Z,26.90
2018-03-19T08:42:05.244Z,27.50
2018-03-19T08:43:05.257Z,27.90
2018-03-19T08:44:05.267Z,29.70
2018-03-19T08:45:05.280Z,27.10
2018-03-19T08:46:05.317Z,26.70
2018-03-19T08:47:05.420Z,27.30
2018-03-19T08:48:05.308Z,27.90
2018-03-19T08:49:05.315Z,26.20
2018-03-19T08:50:05.327Z,28.80
2018-03-19T08:51:05.356Z,26.50
2018-03-19T08:52:05.346Z,25.50
2018-03-19T08:53:05.371Z,28.40
2018-03-19T08:54:05.362Z,25.80
2018-03-19T08:55:05.395Z,27.10
2018-03-19T08:56:05.379Z,28.70
2018-03-19T08:57:05.395Z,25.90
2018-03-19T08:58:05.404Z,28.40
2018-03-19T08:59:05.439Z,26.00
2018-03-19T09:00:05.475Z,26.50
2018-03-19T09:01:05.433Z,25.40
2018-03-19T09:02:05.443Z,27.00
2018-03-19T09:03:06.244Z,27.00
2018-03-19T09:04:05.468Z,27.30
2018-03-19T09:05:05.496Z,32.10
2018-03-19T09:06:05.488Z,25.40
2018-03-19T09:07:05.489Z,26.90
2018-03-19T09:08:05.512Z,26.30
2018-03-19T09:09:05.523Z,27.50
2018-03-19T09:10:05.588Z,26.10
2018-03-19T09:11:05.565Z,27.70
2018-03-19T09:12:05.548Z,26.30
2018-03-19T09:13:05.554Z,27.40
2018-03-19T09:14:05.583Z,23.20
2018-03-19T09:15:05.594Z,24.10
2018-03-19T09:16:05.628Z,27.10
2018-03-19T09:17:06.322Z,28.80
2018-03-19T09:18:05.693Z,27.00
2018-03-19T09:19:05.606Z,26.60
2018-03-19T09:20:05.621Z,29.90
2018-03-19T09:21:05.662Z,28.30
2018-03-19T09:22:06.036Z,31.20
2018-03-19T09:23:06.111Z,32.80
2018-03-19T09:24:05.906Z,26.80
2018-03-19T09:25:05.669Z,30.30
2018-03-19T09:26:05.700Z,28.90
2018-03-19T09:27:05.692Z,26.10
2018-03-19T09:28:05.698Z,26.90
2018-03-19T09:29:05.711Z,28.10
2018-03-19T09:30:05.757Z,27.90
2018-03-19T09:31:05.773Z,27.70
2018-03-19T09:32:05.745Z,28.50
2018-03-19T09:33:05.760Z,26.80
2018-03-19T09:34:05.762Z,28.00
2018-03-19T09:35:05.821Z,28.40
2018-03-19T09:36:05.780Z,26.10
2018-03-19T09:37:05.788Z,26.90
2018-03-19T09:38:05.801Z,28.10
2018-03-19T09:39:05.814Z,28.30
2018-03-19T09:40:05.870Z,29.00
2018-03-19T09:41:05.847Z,26.50
2018-03-19T09:42:05.843Z,28.10
2018-03-19T09:43:05.857Z,27.40
2018-03-19T09:44:05.942Z,27.80
2018-03-19T09:45:05.908Z,26.60
2018-03-19T09:46:05.884Z,26.10
2018-03-19T09:47:05.904Z,28.50
2018-03-19T09:48:05.901Z,27.10
2018-03-19T09:49:06.007Z,28.10
2018-03-19T09:50:06.021Z,28.00
2018-03-19T09:51:05.942Z,27.20
2018-03-19T09:52:05.947Z,27.80
2018-03-19T09:53:05.956Z,26.40
2018-03-19T09:54:05.969Z,27.90
2018-03-19T09:55:06.009Z,26.40
2018-03-19T09:56:05.982Z,26.40
2018-03-19T09:57:05.995Z,28.30
2018-03-19T09:58:06.001Z,27.90
2018-03-19T09:59:06.018Z,27.40
2018-03-19T10:00:06.062Z,25.80
2018-03-19T10:01:06.034Z,27.30
2018-03-19T10:02:06.051Z,28.40
2018-03-19T10:03:06.056Z,26.70
2018-03-19T10:04:06.096Z,25.50
2018-03-19T10:05:06.096Z,28.10
2018-03-19T10:06:06.092Z,27.10
2018-03-19T10:07:06.096Z,27.00
2018-03-19T10:08:06.110Z,27.30
2018-03-19T10:09:06.129Z,26.10
2018-03-19T10:10:06.155Z,26.20
2018-03-19T10:11:06.138Z,25.10
2018-03-19T10:12:06.150Z,24.20
2018-03-19T10:13:06.162Z,26.00
2018-03-19T10:14:06.168Z,24.30
2018-03-19T10:15:06.206Z,24.20
2018-03-19T10:16:06.189Z,24.40
2018-03-19T10:17:06.206Z,25.50
2018-03-19T10:18:06.214Z,25.10
2018-03-19T10:19:06.237Z,25.80
2018-03-19T10:20:06.251Z,26.20
2018-03-19T10:21:06.240Z,26.80
2018-03-19T10:22:06.264Z,25.50
2018-03-19T10:23:06.262Z,25.90
2018-03-19T10:24:06.270Z,25.80
2018-03-19T10:25:06.285Z,27.30
2018-03-19T10:26:06.293Z,27.20
2018-03-19T10:27:06.322Z,25.80
2018-03-19T10:28:06.321Z,23.60
2018-03-19T10:29:06.326Z,23.90
2018-03-19T10:30:06.334Z,23.50
2018-03-19T10:31:06.362Z,22.70
2018-03-19T10:32:06.353Z,23.40
2018-03-19T10:33:06.370Z,21.90
2018-03-19T10:34:06.381Z,21.70
2018-03-19T10:35:06.388Z,21.50
2018-03-19T10:36:06.414Z,22.60
2018-03-19T10:37:06.403Z,22.60
2018-03-19T10:38:06.422Z,22.20
2018-03-19T10:39:06.427Z,24.20
2018-03-19T10:40:06.439Z,21.80
2018-03-19T10:41:06.483Z,22.00
2018-03-19T10:42:06.462Z,22.60
2018-03-19T10:43:06.470Z,22.10
2018-03-19T10:44:06.482Z,22.60
2018-03-19T10:45:06.501Z,21.80
2018-03-19T10:46:06.542Z,21.40
2018-03-19T10:47:06.511Z,23.30
2018-03-19T10:48:06.525Z,23.50
2018-03-19T10:49:06.529Z,22.40
2018-03-19T10:50:06.540Z,22.60
2018-03-19T10:51:06.575Z,24.30
2018-03-19T10:52:06.564Z,26.20
2018-03-19T10:53:06.572Z,26.60
2018-03-19T10:54:06.627Z,25.50
2018-03-19T10:55:06.596Z,24.80
2018-03-19T10:56:06.606Z,24.10
2018-03-19T10:57:06.618Z,24.00
2018-03-19T10:58:06.625Z,24.50
2018-03-19T10:59:06.665Z,24.10
2018-03-19T11:00:06.647Z,22.20
2018-03-19T11:01:06.655Z,23.30
2018-03-19T11:02:06.668Z,24.20
2018-03-19T11:03:06.717Z,24.10
2018-03-19T11:04:06.724Z,23.20
2018-03-19T11:05:06.698Z,24.30
2018-03-19T11:06:06.752Z,22.40
2018-03-19T11:07:06.718Z,24.40
2018-03-19T11:08:06.797Z,23.90
2018-03-19T11:09:06.763Z,22.40
2018-03-19T11:10:06.755Z,21.90
2018-03-19T11:11:06.766Z,22.40
2018-03-19T11:12:06.950Z,23.40
2018-03-19T11:13:06.780Z,23.00
2018-03-19T11:14:06.812Z,28.20
2018-03-19T11:15:06.811Z,24.40
2018-03-19T11:16:06.831Z,23.70
2018-03-19T11:17:06.836Z,23.10
2018-03-19T11:18:06.830Z,22.30
2018-03-19T11:19:06.842Z,22.00
2018-03-19T11:20:06.853Z,22.00
2018-03-19T11:21:06.900Z,23.10
2018-03-19T11:22:06.875Z,21.70
2018-03-19T11:23:06.892Z,22.10
2018-03-19T11:24:06.895Z,23.00
2018-03-19T11:25:06.908Z,22.70
2018-03-19T11:26:06.960Z,22.80
2018-03-19T11:27:06.935Z,23.20
2018-03-19T11:28:06.942Z,23.00
2018-03-19T11:29:06.958Z,22.50
2018-03-19T11:30:07.046Z,22.40
2018-03-19T11:31:07.004Z,22.80
2018-03-19T11:32:06.988Z,22.70
2018-03-19T11:33:07.286Z,21.80
2018-03-19T11:34:07.080Z,20.90
2018-03-19T11:35:07.209Z,22.20
2018-03-19T11:36:07.310Z,21.40
2018-03-19T11:37:07.252Z,22.00
2018-03-19T11:38:07.316Z,22.20
2018-03-19T11:39:07.340Z,22.20
2018-03-19T11:40:07.372Z,22.00
2018-03-19T11:41:07.387Z,21.30
2018-03-19T11:42:07.302Z,22.20
2018-03-19T11:43:07.452Z,22.50
2018-03-19T11:44:07.271Z,21.40
2018-03-19T11:45:07.193Z,21.00
2018-03-19T11:46:07.146Z,22.80
2018-03-19T11:47:07.236Z,22.30
2018-03-19T11:48:07.223Z,21.80
2018-03-19T11:49:07.241Z,21.80
2018-03-19T11:50:07.272Z,22.20
2018-03-19T11:51:07.259Z,21.70
2018-03-19T11:52:07.203Z,21.60
2018-03-19T11:53:07.235Z,22.00
2018-03-19T11:54:07.206Z,22.30
2018-03-19T11:55:07.216Z,22.30
2018-03-19T11:56:07.255Z,22.10
2018-03-19T11:57:07.242Z,21.30
2018-03-19T11:58:07.339Z,21.40
2018-03-19T11:59:07.331Z,21.60
2018-03-19T12:00:07.297Z,21.70
2018-03-19T12:01:07.323Z,22.50
2018-03-19T12:02:07.295Z,22.50
2018-03-19T12:03:07.369Z,21.00
2018-03-19T12:04:07.313Z,21.30
2018-03-19T12:05:07.384Z,22.50
2018-03-19T12:06:07.402Z,21.50
2018-03-19T12:07:07.341Z,23.00
2018-03-19T12:08:07.374Z,21.40
2018-03-19T12:09:07.435Z,22.20
2018-03-19T12:10:07.452Z,21.50
2018-03-19T12:11:07.383Z,22.10
2018-03-19T12:12:07.413Z,21.20
2018-03-19T12:13:07.442Z,22.20
2018-03-19T12:14:07.424Z,22.40
2018-03-19T12:15:07.550Z,21.00
2018-03-19T12:16:07.433Z,21.20
2018-03-19T12:17:07.498Z,22.00
2018-03-19T12:18:07.455Z,23.20
2018-03-19T12:19:07.535Z,22.20
2018-03-19T12:20:07.469Z,22.50
2018-03-19T12:21:08.081Z,21.80
2018-03-19T12:22:07.599Z,21.40
2018-03-19T12:23:07.505Z,20.70
2018-03-19T12:24:07.582Z,21.40
2018-03-19T12:25:07.622Z,21.30
2018-03-19T12:26:07.780Z,22.00
2018-03-19T12:27:07.590Z,23.10
2018-03-19T12:28:07.557Z,21.00
2018-03-19T12:29:07.627Z,20.50
2018-03-19T12:30:07.666Z,21.10
2018-03-19T12:31:07.664Z,21.90
2018-03-19T12:32:07.633Z,22.00
2018-03-19T12:33:07.606Z,21.60
2018-03-19T12:34:07.611Z,22.20
2018-03-19T12:35:07.629Z,21.80
2018-03-19T12:36:07.711Z,21.10
2018-03-19T12:37:07.665Z,22.10
2018-03-19T12:38:07.664Z,24.00
2018-03-19T12:39:07.733Z,23.30
2018-03-19T12:40:07.680Z,24.80
2018-03-19T12:41:07.687Z,22.70
2018-03-19T12:42:07.740Z,22.10
2018-03-19T12:43:07.762Z,21.70
2018-03-19T12:44:07.799Z,21.60
2018-03-19T12:45:07.783Z,21.80
2018-03-19T12:46:07.735Z,22.30
2018-03-19T12:47:07.808Z,22.40
2018-03-19T12:48:07.760Z,22.00
2018-03-19T12:49:07.767Z,28.50
2018-03-19T12:50:07.776Z,26.20
2018-03-19T12:51:08.129Z,31.20
2018-03-19T12:52:07.841Z,30.90
2018-03-19T12:53:07.806Z,33.30
2018-03-19T12:54:07.821Z,29.20
2018-03-19T12:55:07.854Z,27.10
2018-03-19T12:56:07.838Z,27.60
2018-03-19T12:57:07.858Z,30.50
2018-03-19T12:58:07.876Z,37.60
2018-03-19T12:59:07.911Z,30.10
2018-03-19T13:00:07.881Z,29.90
2018-03-19T13:01:07.894Z,30.00
2018-03-19T13:02:07.903Z,26.80
2018-03-19T13:03:07.909Z,33.50
2018-03-19T13:04:07.937Z,26.50
2018-03-19T13:05:07.936Z,30.50
2018-03-19T13:06:07.948Z,28.10
2018-03-19T13:07:07.996Z,37.00
2018-03-19T13:08:07.966Z,28.80
2018-03-19T13:09:07.968Z,31.00
2018-03-19T13:10:07.982Z,28.90
2018-03-19T13:11:08.002Z,31.80
2018-03-19T13:12:08.058Z,32.00
2018-03-19T13:13:08.012Z,31.20
2018-03-19T13:14:08.026Z,32.30
2018-03-19T13:15:08.026Z,31.30
2018-03-19T13:16:08.044Z,28.40
2018-03-19T13:17:08.069Z,29.80
2018-03-19T13:18:08.124Z,35.80
2018-03-19T13:19:08.075Z,29.50
2018-03-19T13:20:08.087Z,33.70